Main page
METAR-TAF:

METAR-TAF

Airports :

Newcastle Airport

Newcastle upon Tyne, England

latitude: 55-02N, longitude: 001-42W, elevation: 81 m

Current weather observation

The report was made 21 minutes ago, at 16:20 UTC
Wind 8 kt from the East, varying between East/Northeast and South
Temperature 22°C
Humidity 41%
Pressure 1030 hPa
Visibility 10 km or more

METAR: EGNT 281620Z AUTO 10008KT 060V170 9999 NCD 22/08 Q1030

Time: 17:41 (16:41 UTC)

Forecast

The report was made 5 hours and 49 minutes ago, at 10:52 UTC
Forecast valid from 28 at 12 UTC to 29 at 12 UTC
Wind 5 kt from the South
Visibility 10 km or more
no clouds below 1500 m and no cumulonimbus
Probability 30% :
Temporary
from 29 at 01 UTC to 29 at 06 UTC
Visibility: 8000 m

TAF: EGNT 281052Z 2812/2912 18005KT CAVOK PROB30 TEMPO 2901/2906 8000

Weather observations and forecasts of more than 4000 airports (METAR and TAF reports).

The available stations are represented by yellow and red dots on the map.

Hover mouse over dot to see the name of the station.

Then click to see weather observations and forecasts.

To change the map : click on the green buttons with a black cross to zoom in, on the green button with a dash to zoom out, or on the green arrows for adjacent maps.


METAR-TAF: